createdAt,value
2018-02-11T00:00:25.058Z,1018.01
2018-02-11T00:01:25.079Z,1018.01
2018-02-11T00:02:25.042Z,1017.94
2018-02-11T00:03:25.112Z,1017.96
2018-02-11T00:04:25.087Z,1017.96
2018-02-11T00:05:25.079Z,1017.91
2018-02-11T00:06:25.070Z,1017.92
2018-02-11T00:07:25.078Z,1017.9
2018-02-11T00:08:25.053Z,1017.89
2018-02-11T00:09:25.042Z,1017.89
2018-02-11T00:10:25.075Z,1017.86
2018-02-11T00:11:25.146Z,1017.85
2018-02-11T00:12:25.031Z,1017.81
2018-02-11T00:13:25.046Z,1017.79
2018-02-11T00:14:25.104Z,1017.77
2018-02-11T00:15:25.049Z,1017.73
2018-02-11T00:16:25.066Z,1017.64
2018-02-11T00:17:25.063Z,1017.63
2018-02-11T00:18:25.057Z,1017.61
2018-02-11T00:19:25.109Z,1017.57
2018-02-11T00:20:25.095Z,1017.53
2018-02-11T00:21:25.126Z,1017.58
2018-02-11T00:22:25.091Z,1017.59
2018-02-11T00:23:25.045Z,1017.6
2018-02-11T00:24:25.083Z,1017.58
2018-02-11T00:25:25.100Z,1017.58
2018-02-11T00:26:25.053Z,1017.57
2018-02-11T00:27:25.114Z,1017.58
2018-02-11T00:28:25.150Z,1017.62
2018-02-11T00:29:25.127Z,1017.61
2018-02-11T00:30:25.115Z,1017.55
2018-02-11T00:31:25.091Z,1017.56
2018-02-11T00:32:25.090Z,1017.57
2018-02-11T00:33:25.097Z,1017.54
2018-02-11T00:34:25.073Z,1017.48
2018-02-11T00:35:25.132Z,1017.48
2018-02-11T00:36:25.074Z,1017.48
2018-02-11T00:37:25.073Z,1017.47
2018-02-11T00:38:25.096Z,1017.43
2018-02-11T00:39:24.303Z,1017.39
2018-02-11T00:40:24.209Z,1017.38
2018-02-11T00:41:24.232Z,1017.38
2018-02-11T00:42:24.254Z,1017.29
2018-02-11T00:43:24.246Z,1017.32
2018-02-11T00:44:24.262Z,1017.26
2018-02-11T00:45:24.216Z,1017.19
2018-02-11T00:46:24.238Z,1017.2
2018-02-11T00:47:24.268Z,1017.18
2018-02-11T00:48:24.263Z,1017.19
2018-02-11T00:49:24.262Z,1017.18
2018-02-11T00:50:24.194Z,1017.16
2018-02-11T00:51:24.248Z,1017.19
2018-02-11T00:52:24.269Z,1017.15
2018-02-11T00:53:24.227Z,1017.12
2018-02-11T00:54:24.225Z,1017.17
2018-02-11T00:55:24.211Z,1017.15
2018-02-11T00:56:24.247Z,1017.18
2018-02-11T00:57:24.261Z,1017.16
2018-02-11T00:58:24.216Z,1017.19
2018-02-11T00:59:24.295Z,1017.14
2018-02-11T01:00:24.261Z,1017.1
2018-02-11T01:01:24.275Z,1017.12
2018-02-11T01:02:24.258Z,1017.13
2018-02-11T01:03:24.209Z,1017.1
2018-02-11T01:04:24.246Z,1017.09
2018-02-11T01:05:24.252Z,1017.06
2018-02-11T01:06:24.205Z,1017.06
2018-02-11T01:07:24.344Z,1017.02
2018-02-11T01:08:24.260Z,1017.07
2018-02-11T01:09:24.295Z,1017.08
2018-02-11T01:10:24.478Z,1017.09
2018-02-11T01:11:24.501Z,1017.05
2018-02-11T01:12:24.463Z,1017.05
2018-02-11T01:13:24.470Z,1017.03
2018-02-11T01:14:24.508Z,1017.01
2018-02-11T01:15:24.453Z,1016.99
2018-02-11T01:16:24.481Z,1016.95
2018-02-11T01:17:24.490Z,1016.92
2018-02-11T01:18:24.549Z,1016.87
2018-02-11T01:19:24.439Z,1016.9
2018-02-11T01:20:24.498Z,1016.84
2018-02-11T01:21:24.488Z,1016.83
2018-02-11T01:22:24.432Z,1016.83
2018-02-11T01:23:24.502Z,1016.88
2018-02-11T01:24:24.454Z,1016.83
2018-02-11T01:25:24.504Z,1016.86
2018-02-11T01:26:24.461Z,1016.87
2018-02-11T01:27:24.473Z,1016.84
2018-02-11T01:28:24.510Z,1016.86
2018-02-11T01:29:24.466Z,1016.83
2018-02-11T01:30:24.506Z,1016.81
2018-02-11T01:31:38.506Z,1016.73
2018-02-11T01:32:24.502Z,1016.74
2018-02-11T01:33:24.522Z,1016.77
2018-02-11T01:34:24.456Z,1016.7
2018-02-11T01:35:24.493Z,1016.66
2018-02-11T01:36:24.462Z,1016.65
2018-02-11T01:37:24.492Z,1016.64
2018-02-11T01:38:24.499Z,1016.63
2018-02-11T01:39:24.490Z,1016.56
2018-02-11T01:40:24.478Z,1016.57
2018-02-11T01:41:24.339Z,1016.55
2018-02-11T01:42:24.333Z,1016.53
2018-02-11T01:43:24.318Z,1016.52
2018-02-11T01:44:24.301Z,1016.52
2018-02-11T01:45:24.306Z,1016.51
2018-02-11T01:46:24.326Z,1016.5
2018-02-11T01:47:24.298Z,1016.48
2018-02-11T01:48:24.329Z,1016.49
2018-02-11T01:49:24.344Z,1016.45
2018-02-11T01:50:24.323Z,1016.41
2018-02-11T01:51:24.304Z,1016.35
2018-02-11T01:52:24.332Z,1016.34
2018-02-11T01:53:24.282Z,1016.31
2018-02-11T01:54:24.302Z,1016.28
2018-02-11T01:55:24.298Z,1016.24
2018-02-11T01:56:24.292Z,1016.24
2018-02-11T01:57:24.366Z,1016.24
2018-02-11T01:58:24.500Z,1016.17
2018-02-11T01:59:24.356Z,1016.14
2018-02-11T02:00:24.336Z,1016.12
2018-02-11T02:01:24.270Z,1016.11
2018-02-11T02:02:24.298Z,1016.1
2018-02-11T02:03:24.296Z,1016.06
2018-02-11T02:04:24.353Z,1016.07
2018-02-11T02:05:24.375Z,1016.04
2018-02-11T02:06:24.294Z,1016.05
2018-02-11T02:07:24.335Z,1016.02
2018-02-11T02:08:24.333Z,1016.02
2018-02-11T02:09:24.348Z,1016.01
2018-02-11T02:10:24.293Z,1015.96
2018-02-11T02:11:24.329Z,1015.95
2018-02-11T02:12:24.371Z,1015.96
2018-02-11T02:13:24.395Z,1015.96
2018-02-11T02:14:24.421Z,1015.92
2018-02-11T02:15:24.368Z,1015.94
2018-02-11T02:16:24.388Z,1015.9
2018-02-11T02:17:24.361Z,1015.87
2018-02-11T02:18:24.397Z,1015.84
2018-02-11T02:19:24.423Z,1015.84
2018-02-11T02:20:24.393Z,1015.81
2018-02-11T02:21:24.348Z,1015.78
2018-02-11T02:22:24.390Z,1015.76
2018-02-11T02:23:24.394Z,1015.73
2018-02-11T02:24:24.366Z,1015.79
2018-02-11T02:25:24.376Z,1015.78
2018-02-11T02:26:24.350Z,1015.78
2018-02-11T02:27:24.382Z,1015.77
2018-02-11T02:28:24.415Z,1015.72
2018-02-11T02:29:24.441Z,1015.7
2018-02-11T02:30:24.404Z,1015.75
2018-02-11T02:31:24.366Z,1015.73
2018-02-11T02:32:24.344Z,1015.71
2018-02-11T02:33:24.450Z,1015.67
2018-02-11T02:34:24.356Z,1015.62
2018-02-11T02:35:24.393Z,1015.59
2018-02-11T02:36:24.400Z,1015.53
2018-02-11T02:37:24.406Z,1015.51
2018-02-11T02:38:24.418Z,1015.47
2018-02-11T02:41:43.378Z,1015.49
2018-02-11T02:42:24.107Z,1015.49
2018-02-11T02:43:24.125Z,1015.49
2018-02-11T02:44:24.124Z,1015.52
2018-02-11T02:45:24.130Z,1015.48
2018-02-11T02:46:24.088Z,1015.5
2018-02-11T02:47:24.078Z,1015.47
2018-02-11T02:48:24.085Z,1015.43
2018-02-11T02:49:24.163Z,1015.39
2018-02-11T02:50:24.076Z,1015.36
2018-02-11T02:51:24.158Z,1015.34
2018-02-11T02:52:24.125Z,1015.35
2018-02-11T02:53:24.121Z,1015.37
2018-02-11T02:54:24.138Z,1015.33
2018-02-11T02:55:24.101Z,1015.35
2018-02-11T02:56:24.107Z,1015.36
2018-02-11T02:57:24.145Z,1015.39
2018-02-11T02:58:24.122Z,1015.32
2018-02-11T02:59:24.102Z,1015.32
2018-02-11T03:00:24.098Z,1015.28
2018-02-11T03:01:24.141Z,1015.23
2018-02-11T03:02:24.115Z,1015.19
2018-02-11T03:03:24.118Z,1015.19
2018-02-11T03:04:24.185Z,1015.17
2018-02-11T03:05:24.089Z,1015.17
2018-02-11T03:06:24.096Z,1015.19
2018-02-11T03:07:24.064Z,1015.12
2018-02-11T03:08:24.122Z,1015.15
2018-02-11T03:09:24.133Z,1015.13
2018-02-11T03:10:24.101Z,1015.07
2018-02-11T03:11:24.177Z,1015.04
2018-02-11T03:12:24.135Z,1015.03
2018-02-11T03:13:24.160Z,1014.98
2018-02-11T03:14:24.198Z,1014.96
2018-02-11T03:15:24.183Z,1014.91
2018-02-11T03:16:24.132Z,1014.85
2018-02-11T03:17:24.260Z,1014.84
2018-02-11T03:18:24.190Z,1014.78
2018-02-11T03:19:24.236Z,1014.81
2018-02-11T03:20:24.173Z,1014.76
2018-02-11T03:21:24.212Z,1014.72
2018-02-11T03:22:24.191Z,1014.7
2018-02-11T03:23:24.198Z,1014.7
2018-02-11T03:24:24.207Z,1014.62
2018-02-11T03:25:24.307Z,1014.62
2018-02-11T03:26:24.218Z,1014.63
2018-02-11T03:27:24.182Z,1014.61
2018-02-11T03:28:24.207Z,1014.62
2018-02-11T03:29:24.206Z,1014.59
2018-02-11T03:30:24.200Z,1014.61
2018-02-11T03:31:24.178Z,1014.57
2018-02-11T03:32:24.159Z,1014.56
2018-02-11T03:33:24.224Z,1014.57
2018-02-11T03:34:24.210Z,1014.57
2018-02-11T03:35:24.184Z,1014.59
2018-02-11T03:36:24.203Z,1014.52
2018-02-11T03:37:24.231Z,1014.45
2018-02-11T03:38:24.198Z,1014.44
2018-02-11T03:39:24.243Z,1014.43
2018-02-11T03:40:24.206Z,1014.43
2018-02-11T03:41:24.173Z,1014.39
2018-02-11T03:42:24.215Z,1014.36
2018-02-11T03:43:24.223Z,1014.39
2018-02-11T03:44:24.168Z,1014.39
2018-02-11T03:45:24.147Z,1014.37
2018-02-11T03:46:24.125Z,1014.33
2018-02-11T03:47:24.139Z,1014.36
2018-02-11T03:48:24.129Z,1014.36
2018-02-11T03:49:24.229Z,1014.38
2018-02-11T03:50:24.135Z,1014.35
2018-02-11T03:51:24.130Z,1014.28
2018-02-11T03:52:24.183Z,1014.23
2018-02-11T03:53:24.208Z,1014.17
2018-02-11T03:54:24.312Z,1014.15
2018-02-11T03:55:24.163Z,1014.14
2018-02-11T03:56:24.136Z,1014.18
2018-02-11T03:57:24.162Z,1014.13
2018-02-11T03:58:24.186Z,1014.15
2018-02-11T03:59:24.242Z,1014.12
2018-02-11T04:00:24.276Z,1014.12
2018-02-11T04:01:24.181Z,1014.15
2018-02-11T04:02:24.177Z,1014.13
2018-02-11T04:03:24.147Z,1014.15
2018-02-11T04:04:24.216Z,1014.12
2018-02-11T04:05:24.172Z,1014.11
2018-02-11T04:06:24.188Z,1014.13
2018-02-11T04:07:24.154Z,1014.08
2018-02-11T04:08:24.126Z,1014.08
2018-02-11T04:09:24.198Z,1014.04
2018-02-11T04:10:24.164Z,1014.03
2018-02-11T04:11:24.184Z,1014.02
2018-02-11T04:12:24.179Z,1014.01
2018-02-11T04:13:24.172Z,1013.97
2018-02-11T04:14:24.134Z,1013.91
2018-02-11T04:15:25.006Z,1013.91
2018-02-11T04:16:25.027Z,1013.85
2018-02-11T04:17:24.997Z,1013.84
2018-02-11T04:18:24.953Z,1013.81
2018-02-11T04:20:25.005Z,1013.74
2018-02-11T04:21:25.008Z,1013.69
2018-02-11T04:22:25.000Z,1013.67
2018-02-11T04:23:25.024Z,1013.69
2018-02-11T04:24:25.030Z,1013.69
2018-02-11T04:25:25.024Z,1013.68
2018-02-11T04:26:25.049Z,1013.68
2018-02-11T04:27:25.003Z,1013.65
2018-02-11T04:28:24.958Z,1013.62
2018-02-11T04:29:25.000Z,1013.6
2018-02-11T04:30:25.014Z,1013.55
2018-02-11T04:31:25.004Z,1013.57
2018-02-11T04:32:24.983Z,1013.59
2018-02-11T04:33:25.022Z,1013.57
2018-02-11T04:34:25.023Z,1013.58
2018-02-11T04:35:24.992Z,1013.54
2018-02-11T04:36:24.967Z,1013.56
2018-02-11T04:37:24.976Z,1013.5
2018-02-11T04:38:24.982Z,1013.48
2018-02-11T04:39:25.025Z,1013.39
2018-02-11T04:40:25.112Z,1013.42
2018-02-11T04:41:24.944Z,1013.43
2018-02-11T04:42:24.953Z,1013.34
2018-02-11T04:43:24.965Z,1013.34
2018-02-11T04:44:25.005Z,1013.37
2018-02-11T04:45:24.971Z,1013.29
2018-02-11T04:46:25.004Z,1013.3
2018-02-11T04:47:25.016Z,1013.23
2018-02-11T04:48:24.956Z,1013.22
2018-02-11T04:49:24.944Z,1013.2
2018-02-11T04:50:24.963Z,1013.14
2018-02-11T04:51:25.014Z,1013.18
2018-02-11T04:52:24.990Z,1013.16
2018-02-11T04:53:24.985Z,1013.16
2018-02-11T04:54:25.009Z,1013.08
2018-02-11T04:55:24.987Z,1013.05
2018-02-11T04:56:25.017Z,1013.07
2018-02-11T04:57:25.022Z,1013.06
2018-02-11T04:58:24.974Z,1013.02
2018-02-11T04:59:24.992Z,1013.01
2018-02-11T05:00:25.000Z,1013
2018-02-11T05:01:24.969Z,1013.05
2018-02-11T05:02:24.966Z,1013.01
2018-02-11T05:03:25.085Z,1013.02
2018-02-11T05:04:24.980Z,1013
2018-02-11T05:05:24.963Z,1012.98
2018-02-11T05:06:24.983Z,1012.89
2018-02-11T05:07:25.010Z,1012.84
2018-02-11T05:08:25.034Z,1012.86
2018-02-11T05:09:24.977Z,1012.84
2018-02-11T05:10:25.019Z,1012.83
2018-02-11T05:11:25.038Z,1012.82
2018-02-11T05:12:25.010Z,1012.85
2018-02-11T05:13:25.010Z,1012.83
2018-02-11T05:14:25.019Z,1012.8
2018-02-11T05:15:24.141Z,1012.81
2018-02-11T05:16:24.127Z,1012.8
2018-02-11T05:17:24.102Z,1012.74
2018-02-11T05:18:24.141Z,1012.72
2018-02-11T05:19:24.167Z,1012.74
2018-02-11T05:20:24.165Z,1012.75
2018-02-11T05:21:24.145Z,1012.75
2018-02-11T05:22:24.154Z,1012.77
2018-02-11T05:23:24.152Z,1012.75
2018-02-11T05:24:24.141Z,1012.78
2018-02-11T05:25:24.171Z,1012.73
2018-02-11T05:26:24.131Z,1012.69
2018-02-11T05:27:24.177Z,1012.65
2018-02-11T05:28:24.442Z,1012.6
2018-02-11T05:29:24.202Z,1012.64
2018-02-11T05:30:24.173Z,1012.65
2018-02-11T05:31:24.106Z,1012.62
2018-02-11T05:32:24.133Z,1012.65
2018-02-11T05:33:24.134Z,1012.65
2018-02-11T05:34:24.099Z,1012.67
2018-02-11T05:35:24.136Z,1012.65
2018-02-11T05:36:24.172Z,1012.62
2018-02-11T05:39:35.678Z,1012.58
2018-02-11T05:40:24.156Z,1012.61
2018-02-11T05:41:24.172Z,1012.58
2018-02-11T05:42:24.174Z,1012.56
2018-02-11T05:43:24.117Z,1012.48
2018-02-11T05:44:24.172Z,1012.49
2018-02-11T05:45:24.120Z,1012.48
2018-02-11T05:46:24.857Z,1012.43
2018-02-11T05:47:24.873Z,1012.47
2018-02-11T05:48:24.846Z,1012.47
2018-02-11T05:49:24.979Z,1012.45
2018-02-11T05:50:24.884Z,1012.39
2018-02-11T05:51:24.861Z,1012.34
2018-02-11T05:52:24.948Z,1012.34
2018-02-11T05:53:24.902Z,1012.33
2018-02-11T05:54:24.931Z,1012.32
2018-02-11T05:55:24.869Z,1012.28
2018-02-11T05:56:24.840Z,1012.31
2018-02-11T05:57:24.877Z,1012.27
2018-02-11T05:58:24.901Z,1012.26
2018-02-11T05:59:24.911Z,1012.26
2018-02-11T06:00:24.895Z,1012.23
2018-02-11T06:01:24.871Z,1012.2
2018-02-11T06:02:24.870Z,1012.19
2018-02-11T06:03:24.952Z,1012.08
2018-02-11T06:04:24.884Z,1012.07
2018-02-11T06:05:24.935Z,1012.02
2018-02-11T06:06:24.898Z,1012.05
2018-02-11T06:07:24.920Z,1011.99
2018-02-11T06:08:24.861Z,1012.03
2018-02-11T06:09:24.911Z,1011.97
2018-02-11T06:10:24.865Z,1012.01
2018-02-11T06:11:24.854Z,1011.98
2018-02-11T06:12:24.912Z,1011.95
2018-02-11T06:13:24.918Z,1011.93
2018-02-11T06:14:24.893Z,1011.9
2018-02-11T06:15:24.910Z,1011.85
2018-02-11T06:16:24.728Z,1011.89
2018-02-11T06:17:24.761Z,1011.89
2018-02-11T06:18:24.732Z,1011.88
2018-02-11T06:19:24.765Z,1011.89
2018-02-11T06:20:24.795Z,1011.88
2018-02-11T06:21:24.737Z,1011.85
2018-02-11T06:22:24.753Z,1011.77
2018-02-11T06:23:24.747Z,1011.81
2018-02-11T06:24:24.716Z,1011.74
2018-02-11T06:25:24.812Z,1011.67
2018-02-11T06:26:24.739Z,1011.68
2018-02-11T06:27:24.750Z,1011.65
2018-02-11T06:28:24.720Z,1011.67
2018-02-11T06:29:24.771Z,1011.7
2018-02-11T06:30:24.772Z,1011.72
2018-02-11T06:31:24.776Z,1011.75
2018-02-11T06:32:24.743Z,1011.69
2018-02-11T06:33:24.764Z,1011.66
2018-02-11T06:34:24.771Z,1011.67
2018-02-11T06:35:24.740Z,1011.64
2018-02-11T06:36:24.704Z,1011.64
2018-02-11T06:37:24.720Z,1011.71
2018-02-11T06:38:24.741Z,1011.7
2018-02-11T06:39:24.741Z,1011.69
2018-02-11T06:40:24.780Z,1011.7
2018-02-11T06:41:24.776Z,1011.67
2018-02-11T06:42:24.724Z,1011.66
2018-02-11T06:43:24.765Z,1011.66
2018-02-11T06:44:24.772Z,1011.65
2018-02-11T06:45:24.902Z,1011.61
2018-02-11T06:46:24.921Z,1011.57
2018-02-11T06:47:24.938Z,1011.6
2018-02-11T06:48:24.934Z,1011.59
2018-02-11T06:49:24.932Z,1011.59
2018-02-11T06:50:24.919Z,1011.57
2018-02-11T06:51:24.944Z,1011.62
2018-02-11T06:52:24.984Z,1011.59
2018-02-11T06:53:24.960Z,1011.59
2018-02-11T06:54:24.963Z,1011.55
2018-02-11T06:55:24.932Z,1011.45
2018-02-11T06:56:25.308Z,1011.44
2018-02-11T06:57:24.986Z,1011.44
2018-02-11T06:58:24.889Z,1011.44
2018-02-11T06:59:24.913Z,1011.4
2018-02-11T07:00:24.876Z,1011.43
2018-02-11T07:01:24.926Z,1011.41
2018-02-11T07:02:24.925Z,1011.4
2018-02-11T07:03:24.970Z,1011.39
2018-02-11T07:04:24.898Z,1011.31
2018-02-11T07:05:24.910Z,1011.34
2018-02-11T07:06:24.943Z,1011.32
2018-02-11T07:07:24.918Z,1011.33
2018-02-11T07:08:24.916Z,1011.34
2018-02-11T07:09:24.885Z,1011.32
2018-02-11T07:10:24.880Z,1011.3
2018-02-11T07:11:24.934Z,1011.28
2018-02-11T07:12:24.940Z,1011.2
2018-02-11T07:13:24.914Z,1011.21
2018-02-11T07:14:24.896Z,1011.2
2018-02-11T07:15:24.930Z,1011.15
2018-02-11T07:16:24.882Z,1011.12
2018-02-11T07:17:24.729Z,1011.13
2018-02-11T07:18:24.764Z,1011.07
2018-02-11T07:19:24.716Z,1011.08
2018-02-11T07:20:24.735Z,1011.07
2018-02-11T07:21:24.805Z,1011.09
2018-02-11T07:22:24.760Z,1011.09
2018-02-11T07:23:24.786Z,1011.11
2018-02-11T07:24:24.746Z,1011.12
2018-02-11T07:25:24.696Z,1011.14
2018-02-11T07:26:24.761Z,1011.12
2018-02-11T07:27:24.868Z,1011.13
2018-02-11T07:28:24.740Z,1011.08
2018-02-11T07:29:24.740Z,1011.11
2018-02-11T07:30:24.766Z,1011.05
2018-02-11T07:31:24.825Z,1011.03
2018-02-11T07:32:24.791Z,1011.01
2018-02-11T07:33:24.734Z,1010.99
2018-02-11T07:34:24.915Z,1011.04
2018-02-11T07:35:24.866Z,1011.02
2018-02-11T07:36:24.763Z,1011.02
2018-02-11T07:37:24.968Z,1010.99
2018-02-11T07:38:24.754Z,1010.97
2018-02-11T07:39:24.704Z,1010.96
2018-02-11T07:40:24.771Z,1010.96
2018-02-11T07:41:24.760Z,1010.87
2018-02-11T07:42:24.832Z,1010.9
2018-02-11T07:43:24.709Z,1010.86
2018-02-11T07:44:24.697Z,1010.88
2018-02-11T07:45:24.758Z,1010.89
2018-02-11T07:46:24.828Z,1010.88
2018-02-11T07:47:25.038Z,1010.85
2018-02-11T07:48:24.952Z,1010.89
2018-02-11T07:49:24.880Z,1010.85
2018-02-11T07:50:24.851Z,1010.83
2018-02-11T07:51:24.906Z,1010.8
2018-02-11T07:52:24.930Z,1010.78
2018-02-11T07:53:24.915Z,1010.84
2018-02-11T07:54:25.000Z,1010.83
2018-02-11T07:55:24.917Z,1010.8
2018-02-11T07:56:25.005Z,1010.75
2018-02-11T07:57:25.161Z,1010.72
2018-02-11T07:58:24.966Z,1010.69
2018-02-11T07:59:24.928Z,1010.7
2018-02-11T08:00:24.967Z,1010.71
2018-02-11T08:01:24.899Z,1010.65
2018-02-11T08:02:24.899Z,1010.68
2018-02-11T08:03:24.908Z,1010.64
2018-02-11T08:04:24.977Z,1010.65
2018-02-11T08:05:24.890Z,1010.69
2018-02-11T08:06:24.870Z,1010.66
2018-02-11T08:07:24.864Z,1010.66
2018-02-11T08:08:24.836Z,1010.66
2018-02-11T08:09:24.890Z,1010.68
2018-02-11T08:10:24.941Z,1010.7
2018-02-11T08:11:24.920Z,1010.69
2018-02-11T08:12:24.868Z,1010.71
2018-02-11T08:13:24.900Z,1010.68
2018-02-11T08:14:24.902Z,1010.74
2018-02-11T08:15:24.922Z,1010.73
2018-02-11T08:16:24.917Z,1010.74
2018-02-11T08:17:25.141Z,1010.76
2018-02-11T08:18:25.211Z,1010.75
2018-02-11T08:19:25.159Z,1010.8
2018-02-11T08:20:25.125Z,1010.75
2018-02-11T08:21:25.154Z,1010.79
2018-02-11T08:22:25.146Z,1010.82
2018-02-11T08:23:25.116Z,1010.78
2018-02-11T08:24:25.122Z,1010.81
2018-02-11T08:25:25.139Z,1010.82
2018-02-11T08:26:25.087Z,1010.88
2018-02-11T08:27:25.117Z,1010.81
2018-02-11T08:28:25.138Z,1010.9
2018-02-11T08:29:25.070Z,1010.78
2018-02-11T08:30:25.237Z,1010.7
2018-02-11T08:31:25.120Z,1010.72
2018-02-11T08:32:25.127Z,1010.72
2018-02-11T08:33:25.135Z,1010.74
2018-02-11T08:34:25.124Z,1010.77
2018-02-11T08:35:25.152Z,1010.69
2018-02-11T08:36:25.126Z,1010.69
2018-02-11T08:37:25.138Z,1010.7
2018-02-11T08:38:25.105Z,1010.75
2018-02-11T08:39:25.109Z,1010.77
2018-02-11T08:40:25.106Z,1010.76
2018-02-11T08:41:25.064Z,1010.81
2018-02-11T08:42:25.105Z,1010.8
2018-02-11T08:43:25.368Z,1010.83
2018-02-11T08:44:25.108Z,1010.84
2018-02-11T08:45:25.126Z,1010.91
2018-02-11T08:46:25.097Z,1010.91
2018-02-11T08:47:25.138Z,1010.9
2018-02-11T08:48:24.137Z,1010.87
2018-02-11T08:49:24.136Z,1010.92
2018-02-11T08:50:24.162Z,1010.87
2018-02-11T08:51:24.133Z,1010.86
2018-02-11T08:52:24.152Z,1010.86
2018-02-11T08:53:24.082Z,1010.79
2018-02-11T08:54:24.171Z,1010.78
2018-02-11T08:55:24.126Z,1010.81
2018-02-11T08:56:24.103Z,1010.77
2018-02-11T08:57:24.110Z,1010.82
2018-02-11T08:58:24.140Z,1010.81
2018-02-11T08:59:24.144Z,1010.76
2018-02-11T09:00:24.199Z,1010.82
2018-02-11T09:01:24.091Z,1010.78
2018-02-11T09:02:24.129Z,1010.8
2018-02-11T09:03:24.104Z,1010.76
2018-02-11T09:04:24.122Z,1010.79
2018-02-11T09:05:24.120Z,1010.78
2018-02-11T09:06:24.188Z,1010.83
2018-02-11T09:07:24.101Z,1010.82
2018-02-11T09:08:24.222Z,1010.85
2018-02-11T09:09:24.189Z,1010.83
2018-02-11T09:10:24.143Z,1010.85
2018-02-11T09:11:24.102Z,1010.78
2018-02-11T09:12:24.742Z,1010.82
2018-02-11T09:13:24.137Z,1010.81
2018-02-11T09:14:24.143Z,1010.78
2018-02-11T09:15:24.151Z,1010.8
2018-02-11T09:16:24.119Z,1010.74
2018-02-11T09:17:24.390Z,1010.75
2018-02-11T09:18:24.121Z,1010.76
2018-02-11T09:19:24.974Z,1010.74
2018-02-11T09:20:24.953Z,1010.67
2018-02-11T09:21:24.957Z,1010.69
2018-02-11T09:22:24.981Z,1010.72
2018-02-11T09:23:25.011Z,1010.68
2018-02-11T09:24:24.979Z,1010.66
2018-02-11T09:25:25.134Z,1010.67
2018-02-11T09:26:25.478Z,1010.69
2018-02-11T09:27:25.038Z,1010.65
2018-02-11T09:28:24.935Z,1010.64
2018-02-11T09:29:24.984Z,1010.64
2018-02-11T09:30:25.254Z,1010.63
2018-02-11T09:31:24.986Z,1010.6
2018-02-11T09:32:25.003Z,1010.6
2018-02-11T09:33:25.153Z,1010.57
2018-02-11T09:34:24.928Z,1010.56
2018-02-11T09:35:24.954Z,1010.54
2018-02-11T09:36:25.778Z,1010.57
2018-02-11T09:37:25.140Z,1010.5
2018-02-11T09:38:25.018Z,1010.5
2018-02-11T09:39:25.117Z,1010.49
2018-02-11T09:40:25.063Z,1010.48
2018-02-11T09:41:25.106Z,1010.47
2018-02-11T09:42:25.059Z,1010.45
2018-02-11T09:43:25.122Z,1010.46
2018-02-11T09:44:24.979Z,1010.47
2018-02-11T09:45:25.024Z,1010.41
2018-02-11T09:46:24.999Z,1010.39
2018-02-11T09:47:25.008Z,1010.38
2018-02-11T09:48:25.006Z,1010.38
2018-02-11T09:49:24.772Z,1010.38
2018-02-11T09:50:25.263Z,1010.36
2018-02-11T09:51:25.822Z,1010.39
2018-02-11T09:52:25.387Z,1010.41
2018-02-11T09:53:25.715Z,1010.4
2018-02-11T09:54:25.478Z,1010.35
2018-02-11T09:55:24.839Z,1010.42
2018-02-11T09:56:25.224Z,1010.35
2018-02-11T09:57:25.514Z,1010.33
2018-02-11T09:58:24.778Z,1010.34
2018-02-11T09:59:25.276Z,1010.32
2018-02-11T10:00:25.478Z,1010.28
2018-02-11T10:01:24.809Z,1010.29
2018-02-11T10:02:25.930Z,1010.28
2018-02-11T10:03:25.234Z,1010.31
2018-02-11T10:04:24.784Z,1010.28
2018-02-11T10:05:24.808Z,1010.28
2018-02-11T10:06:25.638Z,1010.24
2018-02-11T10:07:25.404Z,1010.31
2018-02-11T10:08:25.385Z,1010.33
2018-02-11T10:09:25.662Z,1010.32
2018-02-11T10:10:25.280Z,1010.27
2018-02-11T10:11:24.836Z,1010.33
2018-02-11T10:12:26.233Z,1010.3
2018-02-11T10:13:25.388Z,1010.3
2018-02-11T10:14:25.675Z,1010.24
2018-02-11T10:15:25.682Z,1010.26
2018-02-11T10:16:24.813Z,1010.22
2018-02-11T10:17:25.202Z,1010.23
2018-02-11T10:18:25.520Z,1010.23
2018-02-11T10:19:25.239Z,1010.21
2018-02-11T10:20:25.161Z,1010.26
2018-02-11T10:21:25.195Z,1010.28
2018-02-11T10:22:25.277Z,1010.19
2018-02-11T10:23:24.825Z,1010.23
2018-02-11T10:24:25.802Z,1010.24
2018-02-11T10:25:25.213Z,1010.24
2018-02-11T10:26:25.293Z,1010.21
2018-02-11T10:27:25.383Z,1010.22
2018-02-11T10:28:25.096Z,1010.25
2018-02-11T10:29:25.205Z,1010.21
2018-02-11T10:30:24.821Z,1010.24
2018-02-11T10:31:25.402Z,1010.16
2018-02-11T10:32:25.113Z,1010.22
2018-02-11T10:33:25.398Z,1010.22
2018-02-11T10:34:25.146Z,1010.2
2018-02-11T10:35:25.014Z,1010.18
2018-02-11T10:36:25.135Z,1010.21
2018-02-11T10:37:25.261Z,1010.22
2018-02-11T10:38:25.248Z,1010.18
2018-02-11T10:39:25.293Z,1010.2
2018-02-11T10:40:24.943Z,1010.17
2018-02-11T10:41:25.189Z,1010.14
2018-02-11T10:42:25.838Z,1010.17
2018-02-11T10:43:25.144Z,1010.14
2018-02-11T10:44:25.288Z,1010.19
2018-02-11T10:45:25.468Z,1010.16
2018-02-11T10:46:25.196Z,1010.17
2018-02-11T10:47:25.158Z,1010.09
2018-02-11T10:48:25.964Z,1010.08
2018-02-11T10:49:25.173Z,1010.13
2018-02-11T10:50:25.578Z,1010.04
2018-02-11T10:51:26.054Z,1010.01
2018-02-11T10:52:25.774Z,1009.99
2018-02-11T10:53:25.595Z,1009.97
2018-02-11T10:54:25.856Z,1009.99
2018-02-11T10:55:25.614Z,1009.91
2018-02-11T10:56:25.503Z,1009.92
2018-02-11T10:57:26.197Z,1009.95
2018-02-11T10:58:25.577Z,1009.94
2018-02-11T10:59:25.568Z,1009.83
2018-02-11T11:00:25.668Z,1009.92
2018-02-11T11:01:25.674Z,1009.92
2018-02-11T11:02:25.776Z,1009.9
2018-02-11T11:03:25.499Z,1009.92
2018-02-11T11:04:25.722Z,1009.83
2018-02-11T11:05:25.502Z,1009.97
2018-02-11T11:06:25.582Z,1009.83
2018-02-11T11:07:25.535Z,1009.88
2018-02-11T11:08:25.392Z,1009.87
2018-02-11T11:09:25.924Z,1009.9
2018-02-11T11:10:25.850Z,1009.84
2018-02-11T11:11:25.541Z,1009.85
2018-02-11T11:12:25.860Z,1009.86
2018-02-11T11:13:25.584Z,1009.79
2018-02-11T11:15:25.760Z,1009.8
2018-02-11T11:16:25.512Z,1009.83
2018-02-11T11:17:26.003Z,1009.83
2018-02-11T11:18:25.727Z,1009.82
2018-02-11T11:19:25.547Z,1009.75
2018-02-11T11:20:25.457Z,1009.74
2018-02-11T11:21:25.046Z,1009.77
2018-02-11T11:22:25.079Z,1009.76
2018-02-11T11:23:25.020Z,1009.75
2018-02-11T11:24:25.053Z,1009.78
2018-02-11T11:25:25.058Z,1009.67
2018-02-11T11:26:25.078Z,1009.73
2018-02-11T11:27:25.020Z,1009.71
2018-02-11T11:28:25.053Z,1009.7
2018-02-11T11:29:24.970Z,1009.67
2018-02-11T11:30:25.747Z,1009.62
2018-02-11T11:31:25.061Z,1009.67
2018-02-11T11:32:24.966Z,1009.67
2018-02-11T11:33:24.977Z,1009.61
2018-02-11T11:34:25.137Z,1009.58
2018-02-11T11:35:25.346Z,1009.6
2018-02-11T11:36:25.164Z,1009.6
2018-02-11T11:37:25.265Z,1009.5
2018-02-11T11:38:24.965Z,1009.56
2018-02-11T11:39:25.056Z,1009.54
2018-02-11T11:40:25.049Z,1009.47
2018-02-11T11:41:24.987Z,1009.54
2018-02-11T11:42:25.044Z,1009.51
2018-02-11T11:43:25.032Z,1009.53
2018-02-11T11:44:25.062Z,1009.52
2018-02-11T11:45:25.239Z,1009.54
2018-02-11T11:46:25.013Z,1009.51
2018-02-11T11:47:24.955Z,1009.48
2018-02-11T11:48:25.038Z,1009.48
2018-02-11T11:49:25.000Z,1009.51
2018-02-11T11:50:25.028Z,1009.54
2018-02-11T11:51:25.008Z,1009.58
2018-02-11T11:52:25.490Z,1009.63
2018-02-11T11:53:25.107Z,1009.51
2018-02-11T11:54:25.320Z,1009.53
2018-02-11T11:55:25.676Z,1009.58
2018-02-11T11:56:25.288Z,1009.53
2018-02-11T11:57:25.451Z,1009.47
2018-02-11T11:58:25.266Z,1009.58
2018-02-11T11:59:25.571Z,1009.58
2018-02-11T12:00:25.486Z,1009.44
2018-02-11T12:01:25.356Z,1009.47
2018-02-11T12:02:25.690Z,1009.5
2018-02-11T12:03:25.377Z,1009.49
2018-02-11T12:04:25.442Z,1009.57
2018-02-11T12:05:25.728Z,1009.53
2018-02-11T12:06:25.376Z,1009.51
2018-02-11T12:07:25.350Z,1009.48
2018-02-11T12:08:25.663Z,1009.49
2018-02-11T12:09:25.339Z,1009.43
2018-02-11T12:10:25.241Z,1009.35
2018-02-11T12:11:26.616Z,1009.42
2018-02-11T12:12:25.534Z,1009.25
2018-02-11T12:13:25.414Z,1009.3